createdAt,value
2023-04-25T00:01:53.718Z,88.32
2023-04-25T00:04:23.593Z,89.41
2023-04-25T00:06:56.924Z,88.65
2023-04-25T00:09:26.926Z,89.11
2023-04-25T00:11:56.672Z,88.68
2023-04-25T00:14:26.421Z,89.18
2023-04-25T00:16:56.392Z,89.03
2023-04-25T00:19:27.976Z,88.08
2023-04-25T00:22:00.410Z,87.83
2023-04-25T00:24:30.127Z,87.94
2023-04-25T00:26:59.963Z,87.97
2023-04-25T00:29:29.717Z,87.33
2023-04-25T00:31:59.601Z,86.80
2023-04-25T00:34:29.421Z,86.69
2023-04-25T00:37:02.978Z,87.51
2023-04-25T00:39:32.729Z,89.39
2023-04-25T00:42:03.148Z,89.32
2023-04-25T00:44:34.466Z,89.25
2023-04-25T00:47:06.124Z,89.32
2023-04-25T00:49:36.130Z,88.50
2023-04-25T00:52:08.836Z,88.27
2023-04-25T00:54:38.651Z,88.97
2023-04-25T00:57:08.441Z,89.71
2023-04-25T00:59:40.073Z,90.00
2023-04-25T01:02:10.414Z,90.83
2023-04-25T01:04:40.529Z,89.86
2023-04-25T01:07:13.739Z,91.50
2023-04-25T01:09:43.527Z,91.76
2023-04-25T01:12:13.452Z,93.33
2023-04-25T01:14:43.880Z,94.35
2023-04-25T01:17:13.893Z,93.92
2023-04-25T01:19:43.636Z,93.92
2023-04-25T01:22:16.107Z,92.87
2023-04-25T01:24:46.194Z,92.78
2023-04-25T01:27:16.400Z,93.60
2023-04-25T01:29:46.683Z,93.75
2023-04-25T01:32:17.874Z,94.01
2023-04-25T01:34:47.692Z,94.36
2023-04-25T01:37:21.230Z,95.13
2023-04-25T01:39:51.350Z,96.59
2023-04-25T01:42:22.531Z,97.60
2023-04-25T01:44:52.370Z,99.00
2023-04-25T01:47:22.131Z,100.00
2023-04-25T01:49:52.059Z,100.00
2023-04-25T01:52:24.475Z,100.00
2023-04-25T01:54:56.762Z,100.00
2023-04-25T01:57:26.812Z,100.00
2023-04-25T02:00:02.250Z,99.09
2023-04-25T02:02:44.079Z,97.22
2023-04-25T02:05:26.449Z,97.50
2023-04-25T02:07:59.320Z,97.02
2023-04-25T02:10:30.402Z,94.26
2023-04-25T02:13:16.944Z,93.90
2023-04-25T02:16:14.333Z,94.19
2023-04-25T02:18:44.141Z,93.04
2023-04-25T02:21:13.856Z,93.17
2023-04-25T02:23:50.121Z,93.08
2023-04-25T02:26:20.070Z,93.69
2023-04-25T02:28:49.786Z,92.80
2023-04-25T02:31:19.601Z,91.59
2023-04-25T02:33:49.639Z,92.04
2023-04-25T02:36:19.661Z,91.76
2023-04-25T02:38:51.973Z,91.04
2023-04-25T02:41:24.409Z,91.25
2023-04-25T02:43:54.141Z,91.21
2023-04-25T02:46:37.876Z,91.49
2023-04-25T02:49:09.552Z,91.86
2023-04-25T02:51:39.458Z,91.65
2023-04-25T02:54:11.885Z,90.46
2023-04-25T02:56:45.730Z,90.88
2023-04-25T02:59:21.010Z,91.39
2023-04-25T03:01:50.944Z,90.86
2023-04-25T03:04:20.783Z,91.64
2023-04-25T03:06:51.181Z,92.36
2023-04-25T03:09:26.483Z,92.79
2023-04-25T03:11:56.322Z,92.71
2023-04-25T03:14:26.747Z,93.46
2023-04-25T03:16:56.732Z,94.01
2023-04-25T03:19:26.936Z,92.80
2023-04-25T03:21:56.693Z,93.94
2023-04-25T03:24:29.373Z,94.00
2023-04-25T03:26:59.124Z,93.31
2023-04-25T03:29:29.908Z,93.49
2023-04-25T03:32:00.397Z,93.59
2023-04-25T03:34:30.239Z,94.33
2023-04-25T03:37:01.140Z,93.93
2023-04-25T03:39:34.134Z,93.28
2023-04-25T03:42:04.079Z,91.76
2023-04-25T03:44:37.193Z,92.64
2023-04-25T03:47:07.366Z,93.20
2023-04-25T03:49:38.696Z,92.70
2023-04-25T03:52:09.814Z,91.89
2023-04-25T03:54:45.108Z,93.08
2023-04-25T03:57:18.651Z,90.07
2023-04-25T03:59:48.387Z,89.86
2023-04-25T04:02:19.357Z,89.82
2023-04-25T04:04:49.733Z,89.00
2023-04-25T04:07:20.106Z,88.14
2023-04-25T04:09:55.927Z,89.49
2023-04-25T04:12:34.114Z,90.59
2023-04-25T04:15:06.885Z,90.52
2023-04-25T04:17:37.238Z,89.10
2023-04-25T04:20:09.443Z,88.45
2023-04-25T04:22:39.440Z,89.08
2023-04-25T04:25:15.730Z,89.86
2023-04-25T04:28:08.319Z,89.18
2023-04-25T04:30:48.157Z,89.79
2023-04-25T04:33:20.081Z,89.08
2023-04-25T04:35:54.643Z,90.02
2023-04-25T04:38:25.119Z,89.63
2023-04-25T04:40:59.080Z,88.22
2023-04-25T04:43:36.717Z,87.45
2023-04-25T04:46:25.812Z,88.24
2023-04-25T04:49:21.810Z,88.67
2023-04-25T04:52:14.188Z,88.54
2023-04-25T04:55:06.597Z,89.99
2023-04-25T04:57:55.034Z,88.82
2023-04-25T05:00:36.853Z,88.41
2023-04-25T05:03:25.416Z,87.33
2023-04-25T05:06:09.958Z,89.00
2023-04-25T05:08:56.571Z,88.07
2023-04-25T05:11:34.950Z,88.11
2023-04-25T05:14:19.407Z,87.24
2023-04-25T05:17:19.628Z,87.40
2023-04-25T05:20:10.393Z,86.11
2023-04-25T05:23:05.227Z,86.67
2023-04-25T05:25:44.883Z,87.01
2023-04-25T05:28:33.013Z,87.06
2023-04-25T05:31:34.545Z,86.90
2023-04-25T05:34:08.780Z,86.83
2023-04-25T05:36:54.382Z,87.16
2023-04-25T05:39:24.172Z,86.77
2023-04-25T05:42:18.356Z,87.20
2023-04-25T05:45:12.157Z,86.85
2023-04-25T05:48:14.474Z,88.00
2023-04-25T05:51:00.207Z,87.34
2023-04-25T05:53:46.969Z,87.46
2023-04-25T05:56:18.185Z,88.46
2023-04-25T05:58:49.803Z,88.65
2023-04-25T06:01:19.761Z,88.93
2023-04-25T06:03:53.129Z,87.81
2023-04-25T06:06:23.302Z,88.30
2023-04-25T06:08:53.099Z,88.29
2023-04-25T06:11:22.991Z,87.83
2023-04-25T06:13:53.104Z,87.23
2023-04-25T06:16:23.129Z,87.77
2023-04-25T06:18:55.607Z,86.03
2023-04-25T06:21:25.345Z,85.45
2023-04-25T06:23:55.148Z,85.34
2023-04-25T06:26:26.944Z,84.22
2023-04-25T06:28:56.790Z,85.52
2023-04-25T06:31:26.595Z,82.63
2023-04-25T06:34:01.138Z,82.63
2023-04-25T06:36:32.816Z,81.94
2023-04-25T06:39:10.213Z,80.10
2023-04-25T06:41:40.111Z,80.31
2023-04-25T06:44:13.607Z,80.96
2023-04-25T06:46:52.505Z,80.27
2023-04-25T06:49:25.537Z,79.67
2023-04-25T06:51:55.360Z,80.20
2023-04-25T06:54:26.044Z,78.58
2023-04-25T06:57:04.202Z,79.16
2023-04-25T06:59:36.479Z,77.35
2023-04-25T07:02:07.429Z,77.72
2023-04-25T07:04:40.189Z,73.76
2023-04-25T07:07:10.290Z,75.20
2023-04-25T07:09:49.341Z,74.69
2023-04-25T07:12:19.149Z,73.90
2023-04-25T07:14:48.963Z,73.29
2023-04-25T07:17:19.223Z,72.97
2023-04-25T07:19:52.606Z,71.70
2023-04-25T07:22:22.415Z,70.96
2023-04-25T07:24:54.342Z,71.40
2023-04-25T07:27:25.773Z,70.91
2023-04-25T07:30:00.391Z,69.11
2023-04-25T07:32:31.003Z,68.80
2023-04-25T07:35:04.497Z,68.62
2023-04-25T07:37:34.307Z,68.51
2023-04-25T07:40:14.090Z,69.62
2023-04-25T07:42:49.494Z,69.44
2023-04-25T07:45:25.563Z,68.58
2023-04-25T07:47:56.065Z,68.34
2023-04-25T07:50:28.835Z,69.45
2023-04-25T07:52:58.889Z,67.49
2023-04-25T07:55:37.630Z,68.88
2023-04-25T07:58:16.668Z,69.28
2023-04-25T08:00:49.426Z,66.81
2023-04-25T08:03:33.383Z,65.49
2023-04-25T08:06:08.332Z,65.30
2023-04-25T08:08:45.804Z,66.68
2023-04-25T08:11:20.095Z,68.38
2023-04-25T08:13:49.809Z,68.19
2023-04-25T08:16:19.816Z,68.48
2023-04-25T08:18:50.470Z,68.49
2023-04-25T08:21:23.321Z,64.94
2023-04-25T08:23:53.310Z,66.78
2023-04-25T08:26:28.328Z,64.01
2023-04-25T08:28:58.361Z,64.18
2023-04-25T08:31:28.241Z,62.30
2023-04-25T08:34:01.862Z,62.81
2023-04-25T08:37:00.355Z,63.28
2023-04-25T08:39:43.338Z,63.16
2023-04-25T08:42:28.157Z,64.19
2023-04-25T08:44:58.277Z,62.86
2023-04-25T08:47:34.216Z,63.85
2023-04-25T08:50:06.593Z,62.35
2023-04-25T08:52:41.461Z,61.68
2023-04-25T08:55:13.443Z,62.32
2023-04-25T08:57:44.393Z,59.83
2023-04-25T09:00:15.887Z,61.41
2023-04-25T09:02:47.742Z,61.10
2023-04-25T09:05:20.218Z,62.06
2023-04-25T09:07:54.128Z,61.48
2023-04-25T09:10:24.011Z,60.18
2023-04-25T09:13:07.464Z,57.73
2023-04-25T09:15:54.762Z,59.19
2023-04-25T09:18:38.838Z,58.64
2023-04-25T09:21:14.138Z,59.03
2023-04-25T09:23:50.942Z,59.67
2023-04-25T09:26:22.563Z,57.13
2023-04-25T09:29:08.305Z,57.08
2023-04-25T09:31:40.919Z,56.57
2023-04-25T09:34:16.832Z,54.59
2023-04-25T09:36:51.826Z,56.02
2023-04-25T09:40:04.112Z,53.05
2023-04-25T09:42:36.609Z,54.16
2023-04-25T09:45:07.730Z,56.18
2023-04-25T09:47:45.131Z,54.54
2023-04-25T09:50:20.778Z,54.67
2023-04-25T09:53:08.172Z,55.52
2023-04-25T09:56:10.225Z,56.00
2023-04-25T09:58:41.357Z,56.53
2023-04-25T10:01:13.976Z,56.89
2023-04-25T10:04:01.770Z,58.08
2023-04-25T10:06:46.534Z,58.73
2023-04-25T10:09:19.726Z,55.55
2023-04-25T10:11:52.541Z,56.28
2023-04-25T10:14:23.448Z,55.26
2023-04-25T10:16:54.845Z,56.78
2023-04-25T10:19:25.603Z,54.99
2023-04-25T10:21:59.715Z,55.38
2023-04-25T10:24:30.817Z,56.38
2023-04-25T10:27:03.896Z,56.42
2023-04-25T10:29:33.784Z,57.34
2023-04-25T10:32:03.661Z,56.34
2023-04-25T10:34:44.022Z,54.75
2023-04-25T10:37:14.481Z,55.15
2023-04-25T10:39:46.014Z,54.63
2023-04-25T10:42:18.714Z,54.27
2023-04-25T10:45:05.549Z,53.08
2023-04-25T10:47:39.617Z,53.82
2023-04-25T10:50:11.828Z,54.29
2023-04-25T10:52:42.995Z,54.34
2023-04-25T10:55:13.177Z,55.29
2023-04-25T10:57:48.589Z,55.71
2023-04-25T11:00:20.785Z,55.21
2023-04-25T11:02:52.325Z,55.56
2023-04-25T11:05:30.872Z,55.81
2023-04-25T11:08:07.554Z,56.33
2023-04-25T11:10:39.091Z,56.03
2023-04-25T11:13:11.426Z,56.42
2023-04-25T11:15:41.269Z,55.82
2023-04-25T11:18:11.208Z,56.48
2023-04-25T11:20:41.376Z,54.68
2023-04-25T11:23:11.733Z,53.70
2023-04-25T11:25:42.340Z,54.96
2023-04-25T11:28:14.725Z,56.69
2023-04-25T11:30:52.230Z,54.68
2023-04-25T11:33:26.643Z,54.89
2023-04-25T11:35:58.169Z,53.94
2023-04-25T11:38:29.612Z,52.91
2023-04-25T11:40:59.644Z,51.48
2023-04-25T11:43:32.515Z,51.38
2023-04-25T11:46:02.423Z,50.57
2023-04-25T11:48:41.175Z,50.96
2023-04-25T11:51:11.552Z,51.93
2023-04-25T11:53:45.249Z,50.90
2023-04-25T11:56:15.257Z,52.58
2023-04-25T11:59:04.641Z,51.40
2023-04-25T12:01:36.459Z,52.04
2023-04-25T12:04:17.088Z,54.39
2023-04-25T12:06:50.325Z,52.90
2023-04-25T12:09:22.735Z,51.27
2023-04-25T12:11:57.122Z,50.11
2023-04-25T12:14:31.090Z,49.73
2023-04-25T12:17:02.251Z,49.42
2023-04-25T12:19:37.257Z,48.78
2023-04-25T12:22:22.282Z,48.34
2023-04-25T12:24:54.323Z,50.01
2023-04-25T12:27:24.099Z,52.67
2023-04-25T12:29:58.390Z,56.98
2023-04-25T12:32:28.415Z,60.25
2023-04-25T12:34:58.209Z,62.06
2023-04-25T12:37:28.096Z,63.26
2023-04-25T12:39:57.805Z,64.36
2023-04-25T12:42:27.557Z,66.65
2023-04-25T12:44:59.866Z,66.45
2023-04-25T12:47:29.702Z,66.81
2023-04-25T12:49:59.511Z,66.48
2023-04-25T12:52:29.228Z,65.18
2023-04-25T12:54:58.951Z,66.15
2023-04-25T12:57:28.702Z,64.92
2023-04-25T13:00:01.692Z,64.01
2023-04-25T13:02:31.573Z,63.08
2023-04-25T13:05:01.448Z,64.23
2023-04-25T13:07:31.962Z,61.95
2023-04-25T13:10:04.013Z,60.09
2023-04-25T13:12:33.766Z,58.82
2023-04-25T13:15:06.430Z,58.78
2023-04-25T13:17:36.248Z,55.56
2023-04-25T13:20:09.768Z,56.96
2023-04-25T13:22:40.482Z,53.95
2023-04-25T13:25:11.832Z,54.77
2023-04-25T13:27:41.821Z,56.79
2023-04-25T13:30:15.138Z,56.66
2023-04-25T13:32:45.073Z,57.07
2023-04-25T13:35:16.451Z,57.06
2023-04-25T13:37:46.475Z,59.02
2023-04-25T13:40:16.785Z,58.79
2023-04-25T13:42:46.999Z,59.47
2023-04-25T13:45:19.422Z,61.16
2023-04-25T13:47:49.299Z,61.49
2023-04-25T13:50:19.462Z,62.75
2023-04-25T13:52:49.330Z,61.56
2023-04-25T13:55:19.450Z,60.63
2023-04-25T13:57:49.512Z,60.75
2023-04-25T14:00:22.593Z,59.72
2023-04-25T14:02:52.438Z,59.67
2023-04-25T14:05:22.320Z,58.27
2023-04-25T14:07:52.224Z,55.68
2023-04-25T14:10:21.924Z,53.31
2023-04-25T14:12:51.870Z,55.00
2023-04-25T14:15:24.271Z,54.66
2023-04-25T14:17:54.128Z,53.90
2023-04-25T14:20:25.069Z,51.61
2023-04-25T14:22:55.666Z,49.97
2023-04-25T14:25:25.590Z,50.52
2023-04-25T14:27:55.454Z,49.83
2023-04-25T14:30:27.833Z,51.57
2023-04-25T14:32:58.157Z,50.87
2023-04-25T14:35:27.939Z,50.78
2023-04-25T14:37:57.979Z,51.32
2023-04-25T14:40:27.971Z,52.44
2023-04-25T14:42:58.196Z,51.72
2023-04-25T14:45:30.705Z,52.62
2023-04-25T14:48:00.823Z,52.77
2023-04-25T14:50:30.651Z,52.62
2023-04-25T14:53:01.797Z,52.73
2023-04-25T14:55:31.871Z,52.82
2023-04-25T14:58:02.230Z,53.98
2023-04-25T15:00:34.704Z,52.52
2023-04-25T15:03:04.810Z,51.98
2023-04-25T15:05:34.741Z,52.68
2023-04-25T15:08:06.403Z,51.25
2023-04-25T15:10:36.273Z,53.19
2023-04-25T15:13:06.953Z,56.06
2023-04-25T15:15:39.286Z,58.29
2023-04-25T15:18:09.053Z,59.53
2023-04-25T15:20:38.871Z,62.02
2023-04-25T15:23:08.807Z,65.29
2023-04-25T15:25:38.537Z,64.80
2023-04-25T15:28:08.379Z,64.23
2023-04-25T15:30:41.256Z,64.12
2023-04-25T15:33:11.093Z,62.96
2023-04-25T15:35:40.981Z,62.82
2023-04-25T15:38:12.428Z,61.88
2023-04-25T15:40:42.189Z,61.63
2023-04-25T15:43:16.192Z,62.49
2023-04-25T15:45:48.827Z,62.55
2023-04-25T15:48:18.575Z,63.63
2023-04-25T15:50:48.452Z,63.26
2023-04-25T15:53:18.260Z,63.84
2023-04-25T15:55:48.241Z,64.00
2023-04-25T15:58:18.081Z,63.49
2023-04-25T16:00:51.926Z,63.83
2023-04-25T16:03:22.394Z,62.32
2023-04-25T16:05:52.991Z,61.31
2023-04-25T16:08:22.736Z,61.79
2023-04-25T16:10:52.941Z,62.57
2023-04-25T16:13:22.911Z,62.40
2023-04-25T16:15:55.287Z,69.08
2023-04-25T16:18:25.164Z,71.18
2023-04-25T16:20:55.029Z,73.56
2023-04-25T16:23:26.622Z,76.36
2023-04-25T16:25:56.385Z,75.79
2023-04-25T16:28:26.136Z,76.22
2023-04-25T16:30:58.494Z,75.54
2023-04-25T16:33:28.226Z,74.96
2023-04-25T16:35:58.237Z,74.86
2023-04-25T16:38:28.030Z,75.49
2023-04-25T16:40:57.804Z,75.69
2023-04-25T16:43:27.662Z,74.58
2023-04-25T16:46:00.045Z,74.72
2023-04-25T16:48:29.763Z,74.44
2023-04-25T16:50:59.606Z,73.20
2023-04-25T16:53:29.560Z,72.86
2023-04-25T16:55:59.313Z,72.34
2023-04-25T16:58:29.383Z,71.45
2023-04-25T17:01:01.910Z,71.98
2023-04-25T17:03:35.683Z,71.73
2023-04-25T17:06:05.953Z,72.29
2023-04-25T17:08:35.920Z,72.02
2023-04-25T17:11:06.192Z,72.31
2023-04-25T17:13:36.648Z,71.71
2023-04-25T17:16:11.371Z,71.67
2023-04-25T17:18:42.114Z,72.42
2023-04-25T17:21:12.199Z,72.37
2023-04-25T17:23:45.692Z,71.94
2023-04-25T17:26:16.609Z,72.18
2023-04-25T17:28:49.829Z,72.04
2023-04-25T17:31:22.772Z,72.35
2023-04-25T17:33:53.099Z,72.42
2023-04-25T17:36:23.152Z,72.31
2023-04-25T17:38:53.168Z,71.54
2023-04-25T17:41:23.079Z,72.10
2023-04-25T17:43:53.092Z,72.10
2023-04-25T17:46:26.941Z,71.25
2023-04-25T17:48:57.699Z,70.90
2023-04-25T17:51:27.668Z,71.74
2023-04-25T17:53:57.466Z,71.73
2023-04-25T17:56:27.872Z,72.09
2023-04-25T17:58:58.006Z,72.11
2023-04-25T18:01:30.522Z,72.06
2023-04-25T18:04:00.946Z,71.77
2023-04-25T18:06:33.066Z,72.10
2023-04-25T18:09:03.246Z,72.15
2023-04-25T18:11:33.029Z,71.72
2023-04-25T18:14:02.925Z,71.82
2023-04-25T18:16:35.426Z,71.12
2023-04-25T18:19:05.826Z,71.04
2023-04-25T18:21:36.466Z,70.49
2023-04-25T18:24:06.656Z,70.44
2023-04-25T18:26:36.451Z,70.38
2023-04-25T18:29:07.651Z,69.46
2023-04-25T18:31:40.217Z,69.69
2023-04-25T18:34:10.207Z,69.12
2023-04-25T18:36:40.763Z,69.64
2023-04-25T18:39:22.120Z,69.08
2023-04-25T18:41:59.311Z,68.87
2023-04-25T18:44:33.863Z,69.57
2023-04-25T18:47:06.456Z,69.76
2023-04-25T18:49:37.635Z,71.08
2023-04-25T18:52:08.714Z,69.88
2023-04-25T18:54:38.701Z,69.80
2023-04-25T18:57:09.524Z,71.39
2023-04-25T18:59:39.343Z,69.31
2023-04-25T19:02:12.463Z,69.62
2023-04-25T19:04:42.316Z,70.06
2023-04-25T19:07:12.409Z,69.86
2023-04-25T19:09:42.198Z,68.94
2023-04-25T19:12:12.051Z,68.99
2023-04-25T19:14:41.977Z,69.29
2023-04-25T19:17:14.406Z,69.40
2023-04-25T19:19:44.206Z,69.67
2023-04-25T19:22:14.369Z,69.20
2023-04-25T19:24:44.111Z,69.67
2023-04-25T19:27:14.263Z,68.85
2023-04-25T19:29:48.333Z,69.72
2023-04-25T19:32:20.803Z,70.16
2023-04-25T19:34:50.545Z,69.90
2023-04-25T19:37:20.311Z,69.77
2023-04-25T19:39:50.059Z,69.65
2023-04-25T19:42:19.871Z,69.10
2023-04-25T19:44:49.671Z,69.00
2023-04-25T19:47:22.261Z,69.32
2023-04-25T19:49:52.455Z,69.73
2023-04-25T19:52:22.516Z,69.15
2023-04-25T19:54:52.428Z,68.94
2023-04-25T19:57:22.217Z,68.97
2023-04-25T19:59:51.955Z,69.70
2023-04-25T20:02:24.365Z,69.21
2023-04-25T20:04:54.216Z,69.66
2023-04-25T20:07:24.686Z,69.26
2023-04-25T20:09:55.465Z,69.29
2023-04-25T20:12:29.991Z,68.92
2023-04-25T20:15:01.656Z,69.42
2023-04-25T20:17:35.687Z,68.92
2023-04-25T20:20:06.785Z,68.90
2023-04-25T20:22:42.804Z,68.93
2023-04-25T20:25:17.519Z,68.84
2023-04-25T20:27:48.455Z,68.48
2023-04-25T20:30:20.000Z,68.67
2023-04-25T20:32:53.190Z,68.34
2023-04-25T20:35:24.853Z,68.26
2023-04-25T20:37:58.845Z,69.61
2023-04-25T20:40:29.873Z,69.47
2023-04-25T20:43:02.020Z,69.20
2023-04-25T20:45:34.710Z,69.35
2023-04-25T20:48:08.214Z,69.39
2023-04-25T20:50:39.944Z,69.22
2023-04-25T20:53:13.827Z,69.42
2023-04-25T20:55:44.643Z,69.44
2023-04-25T20:58:15.371Z,69.65
2023-04-25T21:00:47.864Z,70.17
2023-04-25T21:03:21.367Z,70.60
2023-04-25T21:05:52.667Z,71.02
2023-04-25T21:08:24.065Z,70.63
2023-04-25T21:10:57.122Z,70.61
2023-04-25T21:13:29.313Z,70.94
2023-04-25T21:16:01.296Z,71.30
2023-04-25T21:18:35.192Z,71.11
2023-04-25T21:21:06.296Z,71.40
2023-04-25T21:23:38.833Z,71.75
2023-04-25T21:26:09.527Z,72.73
2023-04-25T21:28:40.154Z,73.70
2023-04-25T21:31:10.927Z,73.89
2023-04-25T21:33:45.097Z,73.88
2023-04-25T21:36:17.584Z,74.10
2023-04-25T21:38:50.413Z,74.81
2023-04-25T21:41:23.108Z,75.00
2023-04-25T21:43:58.028Z,75.39
2023-04-25T21:46:29.099Z,74.77
2023-04-25T21:49:04.113Z,69.78
2023-04-25T21:51:35.259Z,72.63
2023-04-25T21:54:06.908Z,73.41
2023-04-25T21:56:38.048Z,73.18
2023-04-25T21:59:12.191Z,73.54
2023-04-25T22:01:45.694Z,74.15
2023-04-25T22:04:19.490Z,74.11
2023-04-25T22:06:50.409Z,74.83
2023-04-25T22:09:21.321Z,74.91
2023-04-25T22:11:55.442Z,75.11
2023-04-25T22:14:27.080Z,75.05
2023-04-25T22:16:57.990Z,74.60
2023-04-25T22:19:32.729Z,74.65
2023-04-25T22:22:03.995Z,74.17
2023-04-25T22:24:37.636Z,74.32
2023-04-25T22:27:11.437Z,74.80
2023-04-25T22:29:42.196Z,74.63
2023-04-25T22:32:12.896Z,74.49
2023-04-25T22:34:47.532Z,74.14
2023-04-25T22:37:19.916Z,74.51
2023-04-25T22:39:50.556Z,74.07
2023-04-25T22:42:21.639Z,73.95
2023-04-25T22:44:53.318Z,74.08
2023-04-25T22:47:24.994Z,74.58
2023-04-25T22:49:58.348Z,74.74
2023-04-25T22:52:29.416Z,74.90
2023-04-25T22:54:59.915Z,74.73
2023-04-25T22:57:30.701Z,74.69
2023-04-25T23:00:02.061Z,74.46
2023-04-25T23:02:33.066Z,74.24
2023-04-25T23:05:07.696Z,74.44
2023-04-25T23:07:42.747Z,75.23
2023-04-25T23:10:14.554Z,75.21
2023-04-25T23:12:46.867Z,75.44
2023-04-25T23:15:17.773Z,75.19
2023-04-25T23:17:48.596Z,75.57
2023-04-25T23:20:22.061Z,75.32
2023-04-25T23:22:56.458Z,75.89
2023-04-25T23:25:28.814Z,76.15
2023-04-25T23:27:59.704Z,75.87
2023-04-25T23:30:31.217Z,75.97
2023-04-25T23:33:02.021Z,75.57
2023-04-25T23:35:41.492Z,76.24
2023-04-25T23:38:12.476Z,77.18
2023-04-25T23:40:43.069Z,77.24
2023-04-25T23:43:14.218Z,77.68
2023-04-25T23:45:47.176Z,78.00
2023-04-25T23:48:18.682Z,77.63
2023-04-25T23:50:52.186Z,78.15
2023-04-25T23:53:25.134Z,77.53
2023-04-25T23:55:55.187Z,77.08
2023-04-25T23:58:24.913Z,76.88
